Time;durP1;ratioP1;P1;durP2;ratioP2;P2;SDS_P1;SDS_P2;PMS_P1;PMS_P2;Temp;Humidity;BMP_temperature;BMP_pressure;BME280_temperature;BME280_humidity;BME280_pressure;Samples;Min_cycle;Max_cycle;Signal;HPM_P1;HPM_P2
2023/06/09 00:01:35;;;;;;;8.85;4.40;;;;;;;22.32;39.92;101282.25;16116060;19;129236;-45
2023/06/09 00:06:58;;;;;;;7.38;3.70;;;;;;;22.31;39.64;101281.38;16113221;19;130279;-45
2023/06/09 00:12:20;;;;;;;7.05;3.90;;;;;;;22.28;39.68;101277.19;16112011;19;129854;-47
2023/06/09 00:17:42;;;;;;;6.60;3.78;;;;;;;22.28;39.79;101279.97;16108759;19;130966;-44
2023/06/09 00:23:04;;;;;;;6.50;3.53;;;;;;;22.29;39.40;101289.16;16110721;19;131399;-46
2023/06/09 00:28:26;;;;;;;6.07;3.75;;;;;;;22.27;39.58;101289.44;16113381;19;129107;-47
2023/06/09 00:33:48;;;;;;;6.88;3.60;;;;;;;22.26;39.69;101279.38;16112099;19;131093;-48
2023/06/09 00:39:10;;;;;;;6.97;3.55;;;;;;;22.25;39.53;101279.66;16111781;19;129623;-42
2023/06/09 00:44:32;;;;;;;5.88;3.75;;;;;;;22.24;39.17;101278.81;16110767;19;129702;-47
2023/06/09 00:49:54;;;;;;;9.35;4.05;;;;;;;22.24;39.68;101278.81;16113558;19;129334;-48
2023/06/09 00:55:17;;;;;;;8.95;3.83;;;;;;;22.23;39.53;101279.06;16106037;19;131223;-43
2023/06/09 01:00:40;;;;;;;7.00;3.72;;;;;;;22.22;39.49;101269.84;16109853;19;130714;-45
2023/06/09 01:06:23;;;;;;;6.65;3.22;;;;;;;22.24;39.47;101277.97;16126378;19;130894;-43
2023/06/09 01:12:05;;;;;;;6.65;3.60;;;;;;;22.20;39.48;101268.41;16111305;19;131227;-45
2023/06/09 01:17:33;;;;;;;9.02;3.95;;;;;;;22.20;39.22;101269.28;16127667;19;131109;-48
2023/06/09 01:23:06;;;;;;;4.03;2.95;;;;;;;22.20;39.65;101268.41;16123554;19;129827;-46
2023/06/09 01:28:29;;;;;;;6.82;3.17;;;;;;;22.19;39.41;101258.38;16126677;19;130387;-46
2023/06/09 01:33:52;;;;;;;7.65;3.97;;;;;;;22.18;39.21;101262.25;16124474;19;130212;-44
2023/06/09 01:39:15;;;;;;;5.13;3.28;;;;;;;22.18;39.21;101267.81;16120342;19;130552;-48
2023/06/09 01:44:37;;;;;;;6.53;3.60;;;;;;;22.16;39.49;101261.66;16121495;19;130301;-45
2023/06/09 01:50:04;;;;;;;4.32;3.17;;;;;;;22.17;39.35;101263.34;16123553;19;129536;-45
2023/06/09 01:55:32;;;;;;;6.32;3.55;;;;;;;22.17;39.56;101268.94;16120433;19;129028;-44
2023/06/09 02:00:56;;;;;;;4.00;3.13;;;;;;;22.15;39.53;101272.00;16120846;19;130274;-45
2023/06/09 02:06:20;;;;;;;4.55;3.13;;;;;;;22.13;39.03;101261.13;16122202;19;129498;-45
2023/06/09 02:11:42;;;;;;;4.03;3.08;;;;;;;22.13;39.50;101261.13;16118624;19;130366;-44
2023/06/09 02:17:04;;;;;;;4.65;2.72;;;;;;;22.12;39.17;101251.06;16119570;19;129389;-43
2023/06/09 02:22:26;;;;;;;5.80;3.15;;;;;;;22.11;39.04;101254.09;16122684;19;129616;-45
2023/06/09 02:27:48;;;;;;;5.47;3.30;;;;;;;22.11;39.24;101246.59;16120161;19;133331;-46
2023/06/09 02:33:10;;;;;;;5.43;3.40;;;;;;;22.11;39.36;101237.38;16123208;19;130097;-44
2023/06/09 02:38:32;;;;;;;4.25;2.90;;;;;;;22.10;39.32;101238.50;16124154;19;129543;-45
2023/06/09 02:43:54;;;;;;;5.72;3.42;;;;;;;22.10;39.55;101242.13;16120123;19;131231;-44
2023/06/09 02:49:16;;;;;;;5.70;3.00;;;;;;;22.08;39.41;101252.69;16116155;19;130740;-46
2023/06/09 02:54:39;;;;;;;4.82;2.97;;;;;;;22.09;39.20;101256.34;16117675;19;129964;-45
2023/06/09 03:00:03;;;;;;;4.72;2.92;;;;;;;22.08;39.20;101249.91;16118562;19;129565;-43
2023/06/09 03:05:25;;;;;;;5.35;3.13;;;;;;;22.07;39.28;101253.78;16118300;19;130641;-46
2023/06/09 03:10:47;;;;;;;6.15;3.00;;;;;;;22.07;39.49;101253.78;16117817;19;133866;-42
2023/06/09 03:16:09;;;;;;;4.53;3.17;;;;;;;22.05;39.34;101256.00;16115823;19;129507;-43
2023/06/09 03:21:35;;;;;;;6.57;3.30;;;;;;;22.05;38.94;101256.00;16115813;19;129029;-48
2023/06/09 03:26:57;;;;;;;5.70;3.15;;;;;;;22.05;38.88;101255.16;16112458;19;132815;-46
2023/06/09 03:32:19;;;;;;;4.75;3.05;;;;;;;22.03;39.17;101258.19;16114244;19;131749;-43
2023/06/09 03:37:41;;;;;;;5.68;3.30;;;;;;;22.03;39.09;101260.97;16116933;19;129246;-45
2023/06/09 03:43:03;;;;;;;9.35;3.20;;;;;;;22.02;39.11;101256.53;16112393;19;129627;-47
2023/06/09 03:48:25;;;;;;;4.40;2.80;;;;;;;22.03;38.83;101262.94;16117453;19;129507;-45
2023/06/09 03:53:47;;;;;;;6.03;2.90;;;;;;;22.01;39.03;101260.44;16116218;19;129577;-49
2023/06/09 03:59:10;;;;;;;5.25;2.90;;;;;;;22.00;39.09;101252.31;16120481;19;129487;-48
2023/06/09 04:04:31;;;;;;;6.43;3.13;;;;;;;22.00;38.96;101277.38;16118393;19;130589;-47
2023/06/09 04:09:53;;;;;;;9.85;3.50;;;;;;;21.99;38.78;101265.41;16114140;19;130970;-46
2023/06/09 04:15:17;;;;;;;5.93;2.97;;;;;;;21.99;39.13;101290.47;16116123;19;129583;-45
2023/06/09 04:20:39;;;;;;;4.57;3.00;;;;;;;21.98;38.93;101295.19;16119314;19;129303;-47
2023/06/09 04:26:02;;;;;;;5.57;3.28;;;;;;;21.97;39.12;101298.25;16129017;19;129040;-44
2023/06/09 04:31:23;;;;;;;5.25;3.53;;;;;;;21.96;38.92;101300.22;16126871;19;129345;-47
2023/06/09 04:36:47;;;;;;;5.32;3.22;;;;;;;21.96;38.58;101303.00;16120427;19;129667;-44
2023/06/09 04:42:09;;;;;;;4.85;2.88;;;;;;;21.95;38.87;101303.25;16128703;19;130146;-43
2023/06/09 04:47:31;;;;;;;5.65;3.17;;;;;;;21.95;38.70;101303.25;16124283;19;129521;-43
2023/06/09 04:52:53;;;;;;;5.97;3.35;;;;;;;21.94;38.84;101299.63;16127462;19;130179;-43
2023/06/09 04:58:15;;;;;;;7.18;3.28;;;;;;;21.93;38.81;101297.09;16124283;19;129505;-46
2023/06/09 05:03:37;;;;;;;6.82;3.03;;;;;;;21.92;39.02;101301.81;16127783;19;129697;-43
2023/06/09 05:09:00;;;;;;;5.63;3.20;;;;;;;21.92;38.78;101296.25;16127860;19;130404;-45
2023/06/09 05:14:22;;;;;;;7.15;3.25;;;;;;;21.92;38.59;101307.41;16123672;19;131123;-45
2023/06/09 05:19:44;;;;;;;6.35;3.00;;;;;;;21.92;38.38;101298.19;16125693;19;130063;-47
2023/06/09 05:25:09;;;;;;;5.80;3.08;;;;;;;21.91;38.82;101299.31;16123504;19;129843;-46
2023/06/09 05:30:31;;;;;;;5.88;2.80;;;;;;;21.90;38.86;101292.06;16126888;19;129402;-47
2023/06/09 05:35:52;;;;;;;5.72;3.00;;;;;;;21.91;38.74;101293.75;16128332;19;133341;-47
2023/06/09 05:41:15;;;;;;;5.13;3.10;;;;;;;21.91;38.41;101293.75;16121637;19;129833;-48
2023/06/09 05:46:38;;;;;;;8.40;3.10;;;;;;;21.89;38.56;101293.97;16123714;19;129531;-52
2023/06/09 05:52:00;;;;;;;4.45;3.03;;;;;;;21.90;38.50;101303.19;16122504;19;129736;-45
2023/06/09 05:57:25;;;;;;;7.53;3.33;;;;;;;21.89;38.56;101296.75;16120291;19;130456;-45
2023/06/09 06:02:47;;;;;;;11.55;3.72;;;;;;;21.88;38.48;101303.44;16124823;19;130300;-46
2023/06/09 06:08:09;;;;;;;5.97;3.20;;;;;;;21.90;38.62;101305.97;16117564;19;130436;-48
2023/06/09 06:13:31;;;;;;;5.78;3.00;;;;;;;21.89;38.67;101302.34;16121849;19;130724;-44
2023/06/09 06:18:53;;;;;;;4.82;3.13;;;;;;;21.90;38.80;101305.97;16121552;19;129657;-44
2023/06/09 06:24:15;;;;;;;5.65;3.00;;;;;;;21.91;38.66;101305.72;16121961;19;129808;-45
2023/06/09 06:29:38;;;;;;;6.03;3.15;;;;;;;21.91;38.67;101302.94;16112987;19;130394;-47
2023/06/09 06:35:01;;;;;;;4.75;3.47;;;;;;;21.92;38.68;101300.97;16120041;19;132129;-45
2023/06/09 06:40:24;;;;;;;6.55;3.22;;;;;;;21.93;38.74;101302.66;16119783;19;129986;-44
2023/06/09 06:45:46;;;;;;;4.50;3.33;;;;;;;21.94;38.58;101304.34;16119144;19;129392;-43
2023/06/09 06:51:08;;;;;;;7.80;3.58;;;;;;;21.94;38.98;101312.69;16119946;19;131646;-43
2023/06/09 06:56:30;;;;;;;6.85;3.40;;;;;;;21.94;38.64;101304.34;16114052;19;129828;-44
2023/06/09 07:01:52;;;;;;;6.97;3.55;;;;;;;21.95;38.71;101300.44;16113131;19;129687;-46
2023/06/09 07:07:15;;;;;;;8.68;3.50;;;;;;;21.95;39.05;101306.03;16112929;19;129708;-43
2023/06/09 07:12:37;;;;;;;7.88;3.40;;;;;;;21.96;39.11;101305.78;16112800;19;131745;-46
2023/06/09 07:17:59;;;;;;;10.43;3.50;;;;;;;21.96;38.90;101303.00;16116422;19;130753;-43
2023/06/09 07:23:21;;;;;;;9.50;3.97;;;;;;;21.98;39.04;101297.16;16114563;19;130717;-43
2023/06/09 07:28:42;;;;;;;6.90;3.50;;;;;;;21.97;39.54;101293.50;16115015;19;129792;-46
2023/06/09 07:34:05;;;;;;;8.18;4.13;;;;;;;22.00;39.65;101297.75;16114727;19;129832;-43
2023/06/09 07:39:30;;;;;;;8.18;3.97;;;;;;;22.02;39.88;101306.69;16117983;19;129472;-45
2023/06/09 07:44:52;;;;;;;8.70;4.05;;;;;;;22.05;39.97;101308.94;16113541;19;131532;-47
2023/06/09 07:50:15;;;;;;;8.77;4.13;;;;;;;22.08;40.16;101311.19;16115267;19;129801;-44
2023/06/09 07:55:37;;;;;;;8.63;4.15;;;;;;;22.12;39.90;101311.50;16113804;19;129541;-45
2023/06/09 08:00:59;;;;;;;7.43;4.03;;;;;;;22.13;40.17;101308.50;16110624;19;131216;-43
2023/06/09 08:06:21;;;;;;;9.65;4.13;;;;;;;22.15;40.29;101310.19;16110700;19;131632;-45
2023/06/09 08:11:43;;;;;;;11.93;4.22;;;;;;;22.17;40.33;101311.59;16111871;19;129405;-47
2023/06/09 08:17:05;;;;;;;10.48;3.95;;;;;;;22.18;40.18;101309.63;16111431;19;131537;-43
2023/06/09 08:22:27;;;;;;;7.60;3.70;;;;;;;22.19;40.02;101312.19;16112270;19;129880;-46
2023/06/09 08:27:49;;;;;;;12.05;3.95;;;;;;;22.21;40.35;101295.22;16113738;19;129551;-45
2023/06/09 08:33:11;;;;;;;9.75;4.38;;;;;;;22.22;40.28;101288.53;16105538;19;130657;-43
2023/06/09 08:38:35;;;;;;;7.97;4.20;;;;;;;22.25;40.23;101276.88;16105606;19;130911;-45
2023/06/09 08:43:57;;;;;;;10.93;4.53;;;;;;;22.26;40.44;101275.78;16108719;19;130431;-47
2023/06/09 08:49:20;;;;;;;7.78;4.30;;;;;;;22.27;40.00;101278.28;16110503;19;129509;-43
2023/06/09 08:54:44;;;;;;;6.47;3.83;;;;;;;22.31;40.53;101274.97;16110121;19;130248;-44
2023/06/09 09:00:10;;;;;;;7.35;3.80;;;;;;;22.32;40.26;101271.09;16106372;19;129443;-45
2023/06/09 09:05:33;;;;;;;6.60;4.25;;;;;;;22.32;40.55;101266.34;16104433;19;133445;-43
2023/06/09 09:10:55;;;;;;;7.07;3.83;;;;;;;22.34;40.32;101266.94;16108740;19;132360;-47
2023/06/09 09:16:18;;;;;;;9.25;3.90;;;;;;;22.35;39.98;101265.81;16108319;19;130410;-43
2023/06/09 09:21:40;;;;;;;5.03;3.50;;;;;;;22.38;40.00;101265.31;16109718;19;130798;-48
2023/06/09 09:27:14;;;;;;;5.82;3.53;;;;;;;22.39;40.42;101261.41;16124056;19;129420;-43
2023/06/09 09:32:36;;;;;;;7.78;3.78;;;;;;;22.41;40.00;101258.34;16122800;19;130362;-48
2023/06/09 09:37:58;;;;;;;12.43;3.83;;;;;;;22.44;40.44;101247.50;16123005;19;131084;-44
2023/06/09 09:43:28;;;;;;;20.53;4.17;;;;;;;22.52;40.01;101251.75;16127311;19;129321;-44
2023/06/09 09:48:51;;;;;;;42.00;5.00;;;;;;;22.55;40.21;101244.81;16122337;19;129246;-42
2023/06/09 09:54:13;;;;;;;17.35;4.25;;;;;;;22.56;40.47;101254.84;16121626;19;130997;-46
2023/06/09 09:59:36;;;;;;;23.95;4.85;;;;;;;22.57;40.54;101245.38;16124008;19;129850;-45
2023/06/09 10:05:03;;;;;;;15.52;4.13;;;;;;;22.58;40.78;101245.13;16118927;19;130756;-42
2023/06/09 10:10:26;;;;;;;22.45;4.03;;;;;;;22.60;40.78;101250.44;16119137;19;131032;-48
2023/06/09 10:15:51;;;;;;;13.88;4.35;;;;;;;22.61;40.74;101235.38;16120790;19;135167;-44
2023/06/09 10:21:13;;;;;;;15.32;4.55;;;;;;;22.62;40.77;101230.63;16120040;19;134747;-42
2023/06/09 10:26:37;;;;;;;15.23;3.95;;;;;;;22.62;40.75;101217.56;16116281;19;132627;-47
2023/06/09 10:32:00;;;;;;;10.60;3.80;;;;;;;22.65;40.75;101218.97;16120600;19;129263;-45
2023/06/09 10:37:29;;;;;;;13.30;4.28;;;;;;;22.65;40.55;101214.22;16115737;19;129621;-46
2023/06/09 10:43:06;;;;;;;11.15;3.72;;;;;;;22.65;40.69;101217.00;16119919;19;129315;-44
2023/06/09 10:48:45;;;;;;;15.50;3.88;;;;;;;22.68;40.59;101204.50;16118651;19;129951;-44
2023/06/09 10:54:07;;;;;;;12.02;4.20;;;;;;;22.68;40.27;101202.53;16107022;19;130071;-45
2023/06/09 10:59:30;;;;;;;12.88;5.68;;;;;;;22.74;39.98;101206.19;16114239;19;131337;-42
2023/06/09 11:04:52;;;;;;;17.05;6.05;;;;;;;22.79;39.66;101202.59;16117238;19;130905;-44
2023/06/09 11:10:14;;;;;;;17.33;7.35;;;;;;;22.83;39.59;101192.59;16116933;19;130617;-44
2023/06/09 11:16:01;;;;;;;16.08;7.00;;;;;;;22.87;39.61;101183.41;16119706;19;129811;-42
2023/06/09 11:21:24;;;;;;;15.40;7.25;;;;;;;22.89;39.14;101180.38;16119831;19;129707;-44
2023/06/09 11:26:46;;;;;;;17.67;7.15;;;;;;;22.92;39.05;101184.59;16114802;19;130103;-45
2023/06/09 11:32:08;;;;;;;17.30;7.15;;;;;;;22.94;38.72;101169.25;16116574;19;134989;-45
2023/06/09 11:37:30;;;;;;;9.93;6.10;;;;;;;22.95;39.00;101162.56;16117536;19;130877;-46
2023/06/09 11:42:52;;;;;;;12.90;6.00;;;;;;;22.97;38.42;101165.94;16114917;19;130330;-46
2023/06/09 11:48:15;;;;;;;13.50;6.30;;;;;;;23.00;38.48;101153.38;16112916;19;129795;-44
2023/06/09 11:53:38;;;;;;;12.15;6.03;;;;;;;23.01;38.20;101164.28;16116646;19;130705;-43
2023/06/09 11:59:00;;;;;;;11.68;5.65;;;;;;;23.02;38.07;101157.56;16113427;19;130407;-44
2023/06/09 12:04:22;;;;;;;11.68;5.72;;;;;;;23.03;38.04;101158.44;16114670;19;129766;-42
2023/06/09 12:09:45;;;;;;;13.45;5.38;;;;;;;23.06;37.95;101157.91;16113313;19;131059;-44
2023/06/09 12:15:07;;;;;;;10.90;5.15;;;;;;;23.06;38.09;101152.31;16112714;19;131892;-43
2023/06/09 12:20:35;;;;;;;10.13;5.35;;;;;;;23.08;37.49;101150.06;16113422;19;131066;-44
2023/06/09 12:25:56;;;;;;;12.13;4.90;;;;;;;23.10;37.65;101150.66;16116278;19;129622;-43
2023/06/09 12:31:18;;;;;;;7.50;4.75;;;;;;;23.10;37.46;101144.22;16113923;19;130257;-44
2023/06/09 12:36:40;;;;;;;10.82;4.60;;;;;;;23.10;37.86;101136.69;16112857;19;130569;-45
2023/06/09 12:42:12;;;;;;;8.93;4.63;;;;;;;23.12;36.99;101125.28;16111704;19;129403;-42
2023/06/09 12:47:34;;;;;;;10.63;4.45;;;;;;;23.13;37.21;101129.75;16110733;19;129905;-45
2023/06/09 12:52:56;;;;;;;10.43;4.35;;;;;;;23.13;36.99;101124.16;16110178;19;129280;-44
2023/06/09 12:58:18;;;;;;;9.63;4.05;;;;;;;23.13;37.25;101127.78;16118483;19;130819;-45
2023/06/09 13:03:44;;;;;;;6.28;4.10;;;;;;;23.14;37.21;101120.25;16127627;19;129887;-47
2023/06/09 13:09:06;;;;;;;5.63;3.80;;;;;;;23.15;37.20;101110.75;16128110;19;129260;-51
2023/06/09 13:14:28;;;;;;;8.65;3.97;;;;;;;23.15;37.17;101116.34;16124408;19;132113;-43
2023/06/09 13:19:50;;;;;;;6.05;3.75;;;;;;;23.15;37.12;101110.75;16125433;19;131331;-43
2023/06/09 13:25:12;;;;;;;6.85;3.67;;;;;;;23.17;37.11;101122.50;16126777;19;129672;-45
2023/06/09 13:30:35;;;;;;;6.78;3.67;;;;;;;23.16;37.14;101118.00;16125938;19;129578;-43
2023/06/09 13:36:00;;;;;;;5.78;3.72;;;;;;;23.17;36.92;101116.91;16122203;19;130221;-43
2023/06/09 13:41:26;;;;;;;6.88;3.88;;;;;;;23.17;37.19;101112.19;16123312;19;130328;-43
2023/06/09 13:46:48;;;;;;;9.77;4.03;;;;;;;23.18;36.83;101093.47;16125160;19;131463;-43
2023/06/09 13:52:10;;;;;;;4.35;3.60;;;;;;;23.18;37.16;101099.03;16122800;19;129506;-45
2023/06/09 13:57:31;;;;;;;4.50;3.90;;;;;;;23.18;36.78;101097.13;16124532;19;129645;-43
2023/06/09 14:02:54;;;;;;;5.10;4.05;;;;;;;23.19;36.84;101089.56;16123415;19;129644;-44
2023/06/09 14:08:17;;;;;;;4.75;3.83;;;;;;;23.20;36.61;101088.47;16119094;19;131064;-45
2023/06/09 14:13:39;;;;;;;5.65;3.63;;;;;;;23.22;36.59;101088.16;16119335;19;129922;-48
2023/06/09 14:19:01;;;;;;;8.43;3.55;;;;;;;23.21;36.23;101084.56;16118833;19;130528;-43
2023/06/09 14:24:23;;;;;;;4.53;3.50;;;;;;;23.21;36.52;101073.38;16122739;19;129638;-45
2023/06/09 14:29:45;;;;;;;6.53;3.78;;;;;;;23.20;36.54;101077.28;16122539;19;130063;-45
2023/06/09 14:35:07;;;;;;;5.57;3.38;;;;;;;23.20;36.56;101060.53;16122749;19;129475;-42
2023/06/09 14:40:34;;;;;;;7.60;3.70;;;;;;;23.22;36.25;101068.63;16122498;19;129101;-44
2023/06/09 14:45:58;;;;;;;4.13;3.22;;;;;;;23.22;36.67;101072.28;16118491;19;129329;-43
2023/06/09 14:51:20;;;;;;;5.63;3.17;;;;;;;23.22;36.21;101055.53;16117459;19;130379;-45
2023/06/09 14:56:42;;;;;;;9.65;3.67;;;;;;;23.24;36.49;101066.41;16115926;19;129619;-46
2023/06/09 15:02:05;;;;;;;6.95;3.55;;;;;;;23.25;36.40;101055.00;16117831;19;129576;-43
2023/06/09 15:07:26;;;;;;;7.20;3.95;;;;;;;23.25;36.44;101060.56;16118538;19;130640;-42
2023/06/09 15:12:49;;;;;;;7.80;3.70;;;;;;;23.26;36.71;101056.66;16117482;19;130747;-45
2023/06/09 15:18:11;;;;;;;4.38;3.20;;;;;;;23.26;36.54;101053.88;16119550;19;129473;-42
2023/06/09 15:23:33;;;;;;;6.07;3.53;;;;;;;23.26;36.81;101051.09;16118000;19;130164;-43
2023/06/09 15:28:55;;;;;;;6.88;3.60;;;;;;;23.27;36.52;101047.16;16116401;19;129537;-48
2023/06/09 15:34:18;;;;;;;5.43;3.35;;;;;;;23.26;36.81;101039.94;16114934;19;130750;-50
2023/06/09 15:39:40;;;;;;;4.10;3.50;;;;;;;23.27;36.44;101036.00;16113705;19;130604;-44
2023/06/09 15:45:02;;;;;;;7.30;3.63;;;;;;;23.28;36.44;101037.66;16107829;19;130244;-51
2023/06/09 15:50:24;;;;;;;5.63;3.05;;;;;;;23.28;36.83;101043.25;16111209;19;131054;-52
2023/06/09 15:55:48;;;;;;;4.93;3.60;;;;;;;23.30;36.73;101029.88;16109935;19;129613;-49
2023/06/09 16:01:09;;;;;;;6.32;3.75;;;;;;;23.30;36.73;101021.50;16112791;19;131521;-51
2023/06/09 16:06:31;;;;;;;6.85;3.13;;;;;;;23.30;36.56;101029.03;16110935;19;129720;-49
2023/06/09 16:11:54;;;;;;;4.75;3.88;;;;;;;23.31;37.05;101031.53;16102654;19;132205;-45
2023/06/09 16:17:17;;;;;;;4.07;2.90;;;;;;;23.32;37.03;101019.28;16102895;19;131236;-46
2023/06/09 16:22:39;;;;;;;6.97;3.53;;;;;;;23.33;36.65;101026.53;16097054;19;130253;-44
2023/06/09 16:28:02;;;;;;;4.97;3.30;;;;;;;23.34;36.56;101017.03;16106365;19;131297;-44
2023/06/09 16:33:24;;;;;;;6.22;3.30;;;;;;;23.34;36.64;101014.25;16105897;19;129496;-47
2023/06/09 16:38:46;;;;;;;4.50;3.28;;;;;;;23.37;36.36;101009.22;16108738;19;130391;-46
2023/06/09 16:44:08;;;;;;;4.75;3.35;;;;;;;23.38;36.61;101017.31;15949647;19;3239534;-45
2023/06/09 16:49:30;;;;;;;6.00;3.45;;;;;;;23.39;36.28;101016.22;16110063;19;130612;-42
2023/06/09 16:54:52;;;;;;;7.45;3.60;;;;;;;23.40;36.80;101022.63;16110877;19;131850;-44
2023/06/09 17:00:14;;;;;;;4.70;3.20;;;;;;;23.42;36.43;101014.81;16108924;19;129699;-44
2023/06/09 17:05:39;;;;;;;;;;;;;;;23.40;36.04;101017.88;16110285;19;129876;-48
2023/06/09 17:11:01;;;;;;;6.28;3.03;;;;;;;23.44;36.44;101026.53;16109516;19;129437;-44
2023/06/09 17:16:23;;;;;;;3.33;3.00;;;;;;;23.45;36.25;101025.44;16108626;19;130377;-44
2023/06/09 17:21:45;;;;;;;6.55;3.35;;;;;;;23.47;36.32;101023.19;16107248;19;130970;-46
2023/06/09 17:27:07;;;;;;;5.22;3.42;;;;;;;23.48;36.60;101028.50;16107578;19;130635;-45
2023/06/09 17:32:29;;;;;;;3.90;3.08;;;;;;;23.49;36.66;101032.16;16109454;19;130072;-42
2023/06/09 17:37:51;;;;;;;9.20;3.38;;;;;;;23.52;36.21;101037.16;16103813;19;130375;-44
2023/06/09 17:43:13;;;;;;;7.40;3.33;;;;;;;23.53;36.15;101044.41;16114826;19;134028;-44
2023/06/09 17:48:40;;;;;;;4.30;3.05;;;;;;;23.55;36.10;101041.38;16123546;19;130096;-43
2023/06/09 17:54:03;;;;;;;7.10;3.60;;;;;;;23.57;36.06;101044.72;16120179;19;129585;-44
2023/06/09 17:59:25;;;;;;;5.28;3.13;;;;;;;23.57;36.16;101045.56;16121970;19;129289;-46
2023/06/09 18:04:47;;;;;;;7.47;3.40;;;;;;;23.58;35.86;101047.25;16121891;19;129704;-42
2023/06/09 18:10:09;;;;;;;6.35;3.60;;;;;;;23.58;35.85;101047.25;16119990;19;130879;-45
2023/06/09 18:15:31;;;;;;;4.60;3.08;;;;;;;23.56;35.61;101045.84;16122150;19;129373;-42
2023/06/09 18:20:53;;;;;;;4.30;3.13;;;;;;;23.56;35.70;101048.63;16122787;19;131076;-42
2023/06/09 18:26:15;;;;;;;4.20;3.15;;;;;;;23.54;35.45;101046.09;16121198;19;129503;-46
2023/06/09 18:31:37;;;;;;;4.38;3.13;;;;;;;23.51;35.65;101055.03;16120583;19;130981;-44
2023/06/09 18:36:59;;;;;;;5.00;3.05;;;;;;;23.49;35.55;101057.28;16121339;19;129247;-47
2023/06/09 18:42:21;;;;;;;4.97;3.17;;;;;;;23.46;35.41;101066.19;16121762;19;130243;-47
2023/06/09 18:47:43;;;;;;;3.72;3.05;;;;;;;23.43;35.55;101069.53;16120232;19;129614;-46
2023/06/09 18:53:05;;;;;;;3.50;3.10;;;;;;;23.41;35.64;101063.38;16117379;19;130642;-43
2023/06/09 18:58:27;;;;;;;3.85;3.20;;;;;;;23.40;35.66;101065.34;16114309;19;129255;-44
2023/06/09 19:03:49;;;;;;;4.00;3.28;;;;;;;23.39;35.53;101060.03;16116450;19;129358;-44
2023/06/09 19:09:11;;;;;;;4.07;3.17;;;;;;;23.39;35.84;101076.78;16116964;19;131829;-46
2023/06/09 19:14:33;;;;;;;4.25;3.13;;;;;;;23.37;35.65;101074.25;16119533;19;129795;-43
2023/06/09 19:19:56;;;;;;;5.75;3.13;;;;;;;23.37;36.02;101079.03;16116414;19;129714;-43
2023/06/09 19:25:17;;;;;;;4.68;3.20;;;;;;;23.34;35.94;101081.25;16114084;19;129365;-46
2023/06/09 19:30:39;;;;;;;6.80;3.35;;;;;;;23.33;36.02;101079.56;16112749;19;129411;-45
2023/06/09 19:36:01;;;;;;;4.35;3.20;;;;;;;23.31;36.02;101090.16;16113463;19;130032;-41
2023/06/09 19:41:23;;;;;;;5.13;2.70;;;;;;;23.30;36.10;101096.84;16117401;19;130624;-48
2023/06/09 19:46:45;;;;;;;9.40;3.22;;;;;;;23.29;36.06;101099.94;16114762;19;129290;-47
2023/06/09 19:52:07;;;;;;;5.50;3.33;;;;;;;23.27;36.24;101108.56;16114932;19;130308;-44
2023/06/09 19:57:29;;;;;;;7.35;2.97;;;;;;;23.26;36.04;101106.91;16116047;19;130472;-45
2023/06/09 20:02:51;;;;;;;5.18;3.30;;;;;;;23.25;36.65;101121.97;16115486;19;129908;-47
2023/06/09 20:08:13;;;;;;;3.50;3.20;;;;;;;23.24;36.56;101134.25;16111322;19;130838;-44
2023/06/09 20:13:35;;;;;;;3.83;2.75;;;;;;;23.23;36.48;101135.38;16112704;19;129264;-44
2023/06/09 20:18:57;;;;;;;5.10;3.08;;;;;;;23.22;36.43;101150.44;16100198;19;130040;-43
2023/06/09 20:24:20;;;;;;;5.10;3.70;;;;;;;23.21;36.67;101148.75;16108819;19;130524;-46
2023/06/09 20:29:42;;;;;;;2.88;2.65;;;;;;;23.20;36.44;101149.84;16106890;19;131001;-46
2023/06/09 20:35:04;;;;;;;6.07;3.53;;;;;;;23.17;36.68;101155.97;16105988;19;131024;-45
2023/06/09 20:40:28;;;;;;;5.28;3.10;;;;;;;23.16;36.82;101157.94;16109419;19;129364;-41
2023/06/09 20:45:50;;;;;;;11.65;3.55;;;;;;;23.19;36.94;101167.72;16108806;19;129207;-42
2023/06/09 20:51:12;;;;;;;8.95;3.30;;;;;;;23.22;36.89;101166.31;16111632;19;129458;-43
2023/06/09 20:56:35;;;;;;;11.82;3.83;;;;;;;23.22;37.40;101172.75;16110661;19;130651;-44
2023/06/09 21:01:57;;;;;;;15.40;3.78;;;;;;;23.20;37.42;101169.41;16102416;19;131119;-44
2023/06/09 21:07:19;;;;;;;14.10;3.85;;;;;;;23.19;37.33;101167.72;16105347;19;130510;-47
2023/06/09 21:12:41;;;;;;;12.27;3.55;;;;;;;23.16;37.29;101171.91;16109407;19;132120;-42
2023/06/09 21:18:03;;;;;;;6.43;3.58;;;;;;;23.16;37.38;101179.41;16113805;19;129469;-41
2023/06/09 21:23:25;;;;;;;7.15;4.00;;;;;;;23.14;37.28;101181.66;16127921;19;131216;-42
2023/06/09 21:28:47;;;;;;;4.03;3.53;;;;;;;23.13;37.54;101186.38;16123957;19;129643;-43
2023/06/09 21:34:09;;;;;;;6.10;3.67;;;;;;;23.12;37.59;101186.66;16127252;19;129573;-44
2023/06/09 21:39:31;;;;;;;7.10;3.88;;;;;;;23.11;37.34;101185.00;16120788;19;130719;-42
2023/06/09 21:44:53;;;;;;;6.97;3.50;;;;;;;23.10;37.61;101188.88;16127044;19;129656;-41
2023/06/09 21:50:15;;;;;;;8.07;3.58;;;;;;;23.08;37.31;101197.50;16124155;19;130786;-42
2023/06/09 21:55:37;;;;;;;6.53;3.90;;;;;;;23.06;37.38;101196.97;16120211;19;129409;-42
2023/06/09 22:00:59;;;;;;;6.68;3.60;;;;;;;23.06;37.49;101202.53;16123960;19;129330;-47
2023/06/09 22:06:22;;;;;;;4.32;3.33;;;;;;;23.05;37.57;101195.28;16123354;19;131100;-44
2023/06/09 22:11:45;;;;;;;5.93;3.70;;;;;;;23.04;37.52;101205.59;16121530;19;129580;-42
2023/06/09 22:17:08;;;;;;;5.70;3.75;;;;;;;23.04;37.51;101200.00;16122466;19;129636;-45
2023/06/09 22:22:33;;;;;;;4.15;3.58;;;;;;;23.03;37.50;101198.31;16120153;19;129835;-43
2023/06/09 22:27:55;;;;;;;5.32;3.25;;;;;;;23.02;37.67;101213.38;16121635;19;129411;-46
2023/06/09 22:33:17;;;;;;;6.93;3.47;;;;;;;23.02;37.73;101210.59;16119420;19;130659;-44
2023/06/09 22:38:39;;;;;;;6.13;3.35;;;;;;;23.01;37.79;101211.72;16116617;19;131155;-46
2023/06/09 22:44:01;;;;;;;4.93;3.33;;;;;;;23.01;37.75;101216.44;16115382;19;129434;-43
2023/06/09 22:49:23;;;;;;;4.35;3.45;;;;;;;22.99;37.69;101213.94;16121031;19;130449;-44
2023/06/09 22:54:48;;;;;;;8.45;3.10;;;;;;;22.99;37.80;101218.66;16119161;19;129498;-43
2023/06/09 23:00:11;;;;;;;5.77;3.57;;;;;;;22.99;37.67;101218.66;16118058;19;129203;-43
2023/06/09 23:05:39;;;;;;;5.30;3.45;;;;;;;22.99;37.71;101227.91;16118683;19;133373;-49
2023/06/09 23:11:02;;;;;;;7.72;3.45;;;;;;;22.97;37.76;101216.16;16115512;19;129902;-49
2023/06/09 23:16:24;;;;;;;7.03;3.92;;;;;;;22.98;37.80;101216.97;16116486;19;131493;-50
2023/06/09 23:21:50;;;;;;;5.47;3.40;;;;;;;22.97;37.72;101221.72;16119799;19;129776;-52
2023/06/09 23:27:12;;;;;;;3.65;3.35;;;;;;;22.97;37.76;101226.47;16119500;19;130138;-51
2023/06/09 23:32:34;;;;;;;6.50;3.58;;;;;;;22.97;37.72;101232.91;16117023;19;130610;-42
2023/06/09 23:37:56;;;;;;;4.47;3.30;;;;;;;22.96;37.66;101236.78;16115185;19;129673;-48
2023/06/09 23:43:20;;;;;;;4.35;3.40;;;;;;;22.96;37.57;101233.16;16115434;19;129436;-41
2023/06/09 23:48:42;;;;;;;6.30;3.50;;;;;;;22.96;37.75;101239.59;16117457;19;129741;-44
2023/06/09 23:54:04;;;;;;;4.45;3.58;;;;;;;22.96;37.46;101236.78;16110967;19;130072;-43
2023/06/09 23:59:26;;;;;;;4.07;3.20;;;;;;;22.94;37.70;101239.00;16116070;19;129419;-41
